Terminal Aerodrome Forecast
Issued by NWS

Home | Current Version | Previous Version | Text Only | Print | Product List | Glossary On
Versions: 1 2 3 4 5 6 7 8 9 10 11 12 13
578
FTUS43 KICT 221134
TAFHUT
TAF
KHUT 221134Z 2212/2312 20005KT P6SM BKN250
     FM221700 19010KT P6SM SCT250
     FM230400 17005KT P6SM BKN250
     FM230800 25005KT P6SM SCT200=

USA.gov is the U.S. government's official web portal to all federal, state and local government web resources and services.